createdAt,value
2022-09-30T00:01:52.031Z,10.73
2022-09-30T00:04:25.195Z,10.69
2022-09-30T00:06:54.424Z,10.65
2022-09-30T00:09:23.086Z,10.61
2022-09-30T00:11:51.901Z,10.60
2022-09-30T00:14:22.782Z,10.53
2022-09-30T00:16:51.303Z,10.50
2022-09-30T00:19:19.285Z,10.51
2022-09-30T00:21:46.959Z,10.51
2022-09-30T00:24:14.755Z,10.55
2022-09-30T00:26:42.411Z,10.53
2022-09-30T00:29:11.520Z,10.59
2022-09-30T00:31:39.598Z,10.58
2022-09-30T00:34:11.444Z,10.62
2022-09-30T00:36:53.341Z,10.68
2022-09-30T00:39:24.124Z,10.71
2022-09-30T00:41:54.790Z,10.74
2022-09-30T00:44:58.145Z,10.81
2022-09-30T00:47:31.582Z,10.78
2022-09-30T00:50:06.058Z,10.66
2022-09-30T00:52:35.200Z,10.56
2022-09-30T00:55:09.356Z,10.52
2022-09-30T00:57:38.131Z,10.51
2022-09-30T01:00:06.589Z,10.56
2022-09-30T01:02:35.126Z,10.58
2022-09-30T01:05:03.793Z,10.60
2022-09-30T01:07:31.478Z,10.62
2022-09-30T01:09:59.621Z,10.66
2022-09-30T01:12:27.851Z,10.68
2022-09-30T01:14:58.926Z,10.68
2022-09-30T01:17:48.190Z,10.72
2022-09-30T01:20:22.812Z,10.75
2022-09-30T01:23:20.351Z,10.75
2022-09-30T01:26:18.753Z,10.77
2022-09-30T01:29:13.015Z,10.80
2022-09-30T01:31:46.520Z,10.79
2022-09-30T01:34:23.115Z,10.81
2022-09-30T01:37:00.510Z,10.85
2022-09-30T01:39:39.207Z,10.87
2022-09-30T01:42:37.666Z,10.83
2022-09-30T01:45:08.901Z,10.80
2022-09-30T01:48:15.394Z,10.77
2022-09-30T01:50:55.322Z,10.75
2022-09-30T01:53:25.955Z,10.76
2022-09-30T01:56:01.819Z,10.78
2022-09-30T01:58:51.488Z,10.78
2022-09-30T02:01:35.396Z,10.80
2022-09-30T02:04:09.871Z,10.80
2022-09-30T02:06:42.884Z,10.82
2022-09-30T02:09:13.410Z,10.78
2022-09-30T02:11:43.369Z,10.79
2022-09-30T02:14:20.904Z,10.77
2022-09-30T02:17:00.554Z,10.80
2022-09-30T02:19:38.169Z,10.79
2022-09-30T02:22:14.431Z,10.77
2022-09-30T02:24:45.048Z,10.69
2022-09-30T02:27:31.636Z,10.63
2022-09-30T02:30:02.769Z,10.63
2022-09-30T02:32:40.569Z,10.58
2022-09-30T02:35:20.077Z,10.55
2022-09-30T02:37:53.866Z,10.58
2022-09-30T02:40:38.216Z,10.60
2022-09-30T02:43:06.628Z,10.61
2022-09-30T02:45:51.140Z,10.66
2022-09-30T02:48:39.627Z,10.65
2022-09-30T02:51:23.470Z,10.72
2022-09-30T02:54:33.340Z,10.68
2022-09-30T02:57:06.087Z,10.67
2022-09-30T02:59:34.121Z,10.59
2022-09-30T03:02:02.149Z,10.54
2022-09-30T03:04:34.438Z,10.54
2022-09-30T03:07:02.812Z,10.54
2022-09-30T03:09:30.635Z,10.56
2022-09-30T03:12:18.340Z,10.58
2022-09-30T03:15:00.687Z,10.64
2022-09-30T03:17:28.273Z,10.63
2022-09-30T03:20:35.801Z,10.60
2022-09-30T03:23:37.370Z,10.57
2022-09-30T03:26:31.933Z,10.52
2022-09-30T03:29:37.440Z,10.49
2022-09-30T03:32:17.019Z,10.45
2022-09-30T03:34:47.480Z,10.43
2022-09-30T03:37:26.043Z,10.47
2022-09-30T03:40:00.433Z,10.49
2022-09-30T03:42:34.083Z,10.53
2022-09-30T03:45:47.725Z,10.58
2022-09-30T03:48:17.152Z,10.59
2022-09-30T03:50:46.189Z,10.62
2022-09-30T03:53:14.437Z,10.64
2022-09-30T03:55:55.395Z,10.66
2022-09-30T03:58:24.805Z,10.67
2022-09-30T04:00:54.758Z,10.71
2022-09-30T04:03:24.452Z,10.66
2022-09-30T04:05:52.118Z,10.71
2022-09-30T04:08:19.866Z,10.74
2022-09-30T04:10:47.560Z,10.74
2022-09-30T04:13:15.299Z,10.74
2022-09-30T04:15:43.365Z,10.74
2022-09-30T04:18:11.044Z,10.74
2022-09-30T04:20:39.543Z,10.75
2022-09-30T04:23:07.158Z,10.79
2022-09-30T04:25:34.809Z,10.79
2022-09-30T04:28:03.037Z,10.79
2022-09-30T04:30:33.604Z,10.79
2022-09-30T04:33:01.642Z,10.79
2022-09-30T04:35:31.146Z,10.77
2022-09-30T04:37:58.829Z,10.71
2022-09-30T04:46:09.966Z,10.72
2022-09-30T04:48:37.591Z,10.73
2022-09-30T04:51:05.287Z,10.73
2022-09-30T04:53:33.034Z,10.68
2022-09-30T04:56:02.339Z,10.62
2022-09-30T04:58:36.051Z,10.59
2022-09-30T05:01:15.951Z,10.59
2022-09-30T05:03:44.517Z,10.52
2022-09-30T05:06:12.782Z,10.52
2022-09-30T05:08:44.628Z,10.53
2022-09-30T05:11:18.559Z,10.57
2022-09-30T05:13:46.847Z,10.55
2022-09-30T05:16:16.039Z,10.48
2022-09-30T05:18:46.782Z,10.50
2022-09-30T05:21:17.479Z,10.49
2022-09-30T05:23:45.391Z,10.52
2022-09-30T05:26:13.542Z,10.55
2022-09-30T05:28:42.474Z,10.50
2022-09-30T05:31:10.430Z,10.51
2022-09-30T05:33:38.230Z,10.53
2022-09-30T05:36:08.701Z,10.50
2022-09-30T05:38:36.656Z,10.52
2022-09-30T05:41:09.851Z,10.49
2022-09-30T05:43:40.157Z,10.54
2022-09-30T05:49:07.005Z,10.58
2022-09-30T05:51:34.628Z,10.62
2022-09-30T05:54:02.255Z,10.58
2022-09-30T05:56:29.885Z,10.55
2022-09-30T05:58:57.567Z,10.55
2022-09-30T06:01:25.256Z,10.58
2022-09-30T06:03:53.153Z,10.58
2022-09-30T06:06:21.285Z,10.60
2022-09-30T06:08:49.108Z,10.54
2022-09-30T06:11:19.657Z,10.49
2022-09-30T06:13:48.836Z,10.54
2022-09-30T06:16:19.109Z,10.56
2022-09-30T06:18:46.761Z,10.58
2022-09-30T06:21:16.845Z,10.58
2022-09-30T06:23:44.922Z,10.58
2022-09-30T06:26:15.393Z,10.65
2022-09-30T06:28:43.843Z,10.75
2022-09-30T06:31:12.378Z,10.80
2022-09-30T06:33:40.070Z,10.83
2022-09-30T06:36:08.248Z,10.83
2022-09-30T06:38:40.438Z,10.86
2022-09-30T06:41:08.998Z,10.87
2022-09-30T06:43:50.949Z,10.87
2022-09-30T06:46:30.722Z,10.85
2022-09-30T06:49:13.390Z,10.78
2022-09-30T06:51:41.776Z,10.74
2022-09-30T06:54:10.237Z,10.73
2022-09-30T06:56:38.110Z,10.74
2022-09-30T06:59:05.835Z,10.75
2022-09-30T07:01:33.496Z,10.79
2022-09-30T07:04:01.930Z,10.80
2022-09-30T07:06:29.584Z,10.81
2022-09-30T07:08:57.897Z,10.83
2022-09-30T07:11:25.936Z,10.84
2022-09-30T07:13:53.595Z,10.81
2022-09-30T07:16:22.356Z,10.81
2022-09-30T07:18:50.034Z,10.80
2022-09-30T07:21:18.010Z,10.79
2022-09-30T07:23:49.845Z,10.81
2022-09-30T07:26:20.589Z,10.82
2022-09-30T07:28:48.759Z,10.84
2022-09-30T07:31:38.017Z,10.87
2022-09-30T07:34:08.206Z,10.91
2022-09-30T07:36:38.847Z,10.95
2022-09-30T07:39:09.113Z,11.00
2022-09-30T07:41:39.904Z,11.02
2022-09-30T07:44:11.013Z,11.06
2022-09-30T07:46:41.404Z,11.09
2022-09-30T07:49:15.537Z,11.13
2022-09-30T07:51:46.940Z,11.19
2022-09-30T07:54:18.096Z,11.22
2022-09-30T07:59:37.988Z,11.27
2022-09-30T08:02:07.813Z,11.29
2022-09-30T08:04:39.256Z,11.31
2022-09-30T08:07:11.318Z,11.32
2022-09-30T08:09:38.967Z,11.38
2022-09-30T08:12:06.957Z,11.40
2022-09-30T08:14:36.047Z,11.43
2022-09-30T08:17:03.748Z,11.47
2022-09-30T08:19:32.393Z,11.52
2022-09-30T08:22:00.346Z,11.58
2022-09-30T08:24:28.338Z,11.59
2022-09-30T08:26:56.837Z,11.63
2022-09-30T08:32:12.481Z,11.68
2022-09-30T08:34:40.111Z,11.65
2022-09-30T08:37:09.462Z,11.69
2022-09-30T08:39:38.968Z,11.71
2022-09-30T08:42:35.603Z,11.79
2022-09-30T08:45:18.257Z,11.85
2022-09-30T08:48:09.912Z,11.96
2022-09-30T08:50:49.040Z,11.98
2022-09-30T08:53:41.103Z,12.04
2022-09-30T08:56:12.847Z,12.02
2022-09-30T08:58:45.439Z,12.06
2022-09-30T09:01:22.372Z,12.11
2022-09-30T09:03:50.100Z,12.17
2022-09-30T09:06:45.776Z,12.18
2022-09-30T09:09:23.205Z,12.19
2022-09-30T09:12:04.361Z,12.21
2022-09-30T09:14:54.162Z,12.27
2022-09-30T09:17:24.626Z,12.34
2022-09-30T09:20:26.449Z,12.38
2022-09-30T09:22:54.198Z,12.45
2022-09-30T09:25:29.266Z,12.46
2022-09-30T09:28:03.313Z,12.46
2022-09-30T09:30:37.369Z,12.50
2022-09-30T09:33:20.952Z,12.50
2022-09-30T09:36:27.229Z,12.52
2022-09-30T09:39:09.011Z,12.52
2022-09-30T09:41:53.663Z,12.51
2022-09-30T09:44:41.878Z,12.55
2022-09-30T09:47:18.299Z,12.60
2022-09-30T09:49:48.022Z,12.64
2022-09-30T09:52:15.662Z,12.70
2022-09-30T09:54:47.081Z,12.69
2022-09-30T09:57:18.413Z,12.73
2022-09-30T10:00:23.837Z,12.73
2022-09-30T10:03:10.183Z,12.70
2022-09-30T10:05:40.791Z,12.74
2022-09-30T10:08:20.448Z,12.73
2022-09-30T10:10:51.234Z,12.76
2022-09-30T10:13:24.662Z,12.77
2022-09-30T10:15:55.798Z,12.79
2022-09-30T10:18:37.621Z,12.84
2022-09-30T10:21:24.094Z,12.89
2022-09-30T10:23:51.764Z,12.96
2022-09-30T10:26:22.835Z,12.96
2022-09-30T10:28:56.183Z,12.98
2022-09-30T10:31:32.759Z,13.03
2022-09-30T10:34:26.607Z,13.10
2022-09-30T10:36:55.667Z,13.17
2022-09-30T10:39:32.195Z,13.23
2022-09-30T10:42:17.214Z,13.28
2022-09-30T10:44:47.028Z,13.33
2022-09-30T10:47:23.354Z,13.40
2022-09-30T10:50:06.380Z,13.41
2022-09-30T10:52:37.623Z,13.46
2022-09-30T10:55:15.693Z,13.50
2022-09-30T10:57:45.649Z,13.54
2022-09-30T11:00:17.095Z,13.56
2022-09-30T11:03:11.996Z,13.54
2022-09-30T11:05:43.522Z,13.47
2022-09-30T11:08:30.187Z,13.39
2022-09-30T11:11:02.783Z,13.37
2022-09-30T11:13:58.482Z,13.36
2022-09-30T11:16:44.721Z,13.36
2022-09-30T11:19:40.262Z,13.32
2022-09-30T11:22:44.705Z,13.34
2022-09-30T11:25:49.706Z,13.31
2022-09-30T11:28:29.324Z,13.26
2022-09-30T11:31:17.149Z,13.27
2022-09-30T11:34:24.164Z,13.28
2022-09-30T11:37:28.758Z,13.35
2022-09-30T11:40:44.129Z,13.35
2022-09-30T11:43:23.709Z,13.42
2022-09-30T11:46:27.177Z,13.45
2022-09-30T11:49:28.188Z,13.45
2022-09-30T11:52:29.493Z,13.45
2022-09-30T11:55:10.619Z,13.49
2022-09-30T11:58:12.075Z,13.61
2022-09-30T12:00:56.863Z,13.71
2022-09-30T12:03:31.513Z,13.78
2022-09-30T12:06:15.524Z,13.83
2022-09-30T12:08:51.646Z,13.89
2022-09-30T12:11:26.594Z,13.88
2022-09-30T12:13:58.697Z,13.84
2022-09-30T12:16:30.893Z,13.88
2022-09-30T12:19:47.771Z,13.89
2022-09-30T12:22:42.199Z,13.85
2022-09-30T12:25:19.806Z,13.92
2022-09-30T12:28:25.034Z,13.92
2022-09-30T12:31:01.227Z,13.87
2022-09-30T12:33:53.778Z,13.89
2022-09-30T12:36:32.812Z,13.95
2022-09-30T12:39:39.628Z,14.05
2022-09-30T12:42:36.724Z,14.07
2022-09-30T12:45:46.915Z,14.00
2022-09-30T12:48:19.589Z,14.00
2022-09-30T12:50:51.528Z,13.90
2022-09-30T12:53:25.253Z,13.95
2022-09-30T12:55:53.543Z,13.86
2022-09-30T12:58:31.884Z,13.73
2022-09-30T13:01:27.810Z,13.73
2022-09-30T13:03:58.335Z,13.75
2022-09-30T13:06:28.092Z,13.74
2022-09-30T13:08:59.084Z,13.74
2022-09-30T13:11:37.453Z,13.90
2022-09-30T13:14:14.810Z,13.90
2022-09-30T13:17:11.338Z,14.01
2022-09-30T13:19:42.115Z,14.08
2022-09-30T13:22:21.829Z,14.09
2022-09-30T13:25:01.770Z,14.11
2022-09-30T13:28:13.991Z,14.20
2022-09-30T13:30:42.161Z,14.33
2022-09-30T13:33:31.976Z,14.31
2022-09-30T13:36:07.693Z,14.48
2022-09-30T13:38:41.482Z,14.55
2022-09-30T13:41:17.994Z,14.64
2022-09-30T13:44:09.151Z,14.70
2022-09-30T13:46:51.047Z,14.61
2022-09-30T13:49:50.357Z,14.55
2022-09-30T13:52:26.254Z,14.55
2022-09-30T13:54:56.359Z,14.46
2022-09-30T13:57:40.432Z,14.31
2022-09-30T14:00:19.031Z,14.31
2022-09-30T14:03:22.455Z,14.32
2022-09-30T14:06:08.463Z,14.29
2022-09-30T14:08:47.602Z,14.44
2022-09-30T14:11:53.935Z,14.46
2022-09-30T14:14:44.944Z,14.60
2022-09-30T14:17:33.487Z,14.60
2022-09-30T14:20:16.467Z,14.53
2022-09-30T14:22:44.196Z,14.43
2022-09-30T14:25:18.090Z,14.50
2022-09-30T14:28:05.430Z,14.52
2022-09-30T14:30:47.314Z,14.63
2022-09-30T14:33:29.434Z,14.77
2022-09-30T14:35:57.166Z,14.77
2022-09-30T14:38:29.192Z,14.86
2022-09-30T14:40:59.988Z,14.94
2022-09-30T14:43:41.783Z,14.88
2022-09-30T14:46:39.867Z,14.90
2022-09-30T14:49:13.508Z,14.96
2022-09-30T14:51:44.626Z,14.96
2022-09-30T14:54:21.778Z,15.00
2022-09-30T14:56:50.785Z,15.05
2022-09-30T14:59:28.172Z,15.06
2022-09-30T15:02:04.476Z,14.95
2022-09-30T15:04:36.061Z,14.88
2022-09-30T15:07:07.975Z,14.89
2022-09-30T15:09:38.562Z,14.90
2022-09-30T15:12:15.026Z,14.92
2022-09-30T15:15:00.643Z,14.96
2022-09-30T15:17:37.966Z,15.02
2022-09-30T15:20:31.431Z,15.10
2022-09-30T15:23:05.399Z,15.07
2022-09-30T15:25:33.328Z,15.10
2022-09-30T15:28:01.099Z,15.09
2022-09-30T15:30:30.385Z,15.16
2022-09-30T15:33:00.945Z,15.17
2022-09-30T15:35:29.502Z,15.17
2022-09-30T15:38:09.669Z,15.02
2022-09-30T15:40:54.323Z,14.99
2022-09-30T15:43:35.542Z,14.98
2022-09-30T15:46:36.394Z,15.00
2022-09-30T15:49:30.149Z,15.01
2022-09-30T15:52:37.547Z,14.97
2022-09-30T15:55:42.839Z,14.91
2022-09-30T15:58:40.617Z,14.95
2022-09-30T16:01:15.251Z,14.91
2022-09-30T16:04:06.598Z,14.97
2022-09-30T16:06:59.512Z,15.03
2022-09-30T16:09:33.809Z,15.13
2022-09-30T16:12:23.374Z,15.15
2022-09-30T16:14:53.749Z,15.17
2022-09-30T16:17:31.045Z,15.20
2022-09-30T16:20:01.785Z,15.16
2022-09-30T16:22:50.492Z,15.10
2022-09-30T16:25:20.621Z,15.05
2022-09-30T16:27:49.224Z,15.00
2022-09-30T16:30:19.853Z,14.98
2022-09-30T16:32:51.806Z,14.96
2022-09-30T16:35:24.746Z,14.96
2022-09-30T16:38:02.526Z,14.92
2022-09-30T16:40:32.206Z,14.88
2022-09-30T16:43:03.190Z,14.78
2022-09-30T16:45:33.925Z,14.71
2022-09-30T16:48:03.135Z,14.62
2022-09-30T16:50:44.910Z,14.56
2022-09-30T16:53:12.630Z,14.48
2022-09-30T16:55:41.203Z,14.45
2022-09-30T16:58:13.329Z,14.36
2022-09-30T17:00:45.695Z,14.46
2022-09-30T17:03:18.827Z,14.49
2022-09-30T17:05:52.850Z,14.46
2022-09-30T17:08:22.378Z,14.37
2022-09-30T17:10:51.123Z,14.20
2022-09-30T17:13:19.687Z,14.09
2022-09-30T17:15:52.812Z,14.01
2022-09-30T17:18:21.143Z,13.91
2022-09-30T17:20:56.978Z,13.81
2022-09-30T17:23:26.456Z,13.74
2022-09-30T17:25:55.834Z,13.66
2022-09-30T17:28:24.239Z,13.57
2022-09-30T17:30:52.050Z,13.49
2022-09-30T17:33:20.874Z,13.39
2022-09-30T17:36:02.072Z,13.31
2022-09-30T17:38:30.333Z,13.16
2022-09-30T17:41:16.843Z,13.07
2022-09-30T17:43:46.506Z,12.96
2022-09-30T17:46:19.942Z,12.79
2022-09-30T17:48:47.950Z,12.67
2022-09-30T17:51:19.578Z,12.56
2022-09-30T17:53:47.775Z,12.39
2022-09-30T17:56:20.416Z,12.25
2022-09-30T17:58:50.224Z,12.16
2022-09-30T18:01:21.383Z,12.06
2022-09-30T18:03:50.343Z,11.98
2022-09-30T18:06:18.019Z,11.89
2022-09-30T18:08:49.635Z,11.82
2022-09-30T18:11:28.112Z,11.80
2022-09-30T18:14:00.554Z,11.79
2022-09-30T18:16:32.552Z,11.78
2022-09-30T18:19:02.442Z,11.76
2022-09-30T18:21:30.879Z,11.74
2022-09-30T18:23:59.186Z,11.74
2022-09-30T18:26:33.320Z,11.73
2022-09-30T18:29:02.735Z,11.70
2022-09-30T18:31:35.784Z,11.68
2022-09-30T18:34:05.867Z,11.65
2022-09-30T18:36:33.745Z,11.64
2022-09-30T18:39:03.189Z,11.63
2022-09-30T18:41:35.547Z,11.61
2022-09-30T18:44:03.887Z,11.56
2022-09-30T18:46:32.455Z,11.54
2022-09-30T18:49:00.103Z,11.54
2022-09-30T18:51:27.788Z,11.57
2022-09-30T18:53:58.720Z,11.57
2022-09-30T18:56:32.868Z,11.59
2022-09-30T18:59:02.443Z,11.60
2022-09-30T19:01:30.664Z,11.60
2022-09-30T19:03:58.586Z,11.59
2022-09-30T19:06:26.711Z,11.58
2022-09-30T19:08:54.427Z,11.63
2022-09-30T19:11:24.025Z,11.61
2022-09-30T19:13:53.847Z,11.57
2022-09-30T19:16:21.489Z,11.58
2022-09-30T19:18:49.161Z,11.61
2022-09-30T19:21:21.191Z,11.63
2022-09-30T19:23:49.744Z,11.63
2022-09-30T19:26:17.412Z,11.63
2022-09-30T19:28:45.281Z,11.62
2022-09-30T19:31:17.981Z,11.52
2022-09-30T19:33:55.966Z,11.48
2022-09-30T19:36:25.858Z,11.45
2022-09-30T19:39:04.291Z,11.44
2022-09-30T19:41:36.692Z,11.43
2022-09-30T19:44:04.659Z,11.43
2022-09-30T19:46:32.497Z,11.42
2022-09-30T19:49:00.253Z,11.39
2022-09-30T19:51:30.239Z,11.32
2022-09-30T19:54:06.338Z,11.27
2022-09-30T19:56:36.349Z,11.26
2022-09-30T19:59:04.536Z,11.25
2022-09-30T20:01:35.626Z,11.23
2022-09-30T20:04:06.010Z,11.22
2022-09-30T20:06:35.312Z,11.14
2022-09-30T20:09:05.516Z,11.08
2022-09-30T20:11:35.274Z,11.07
2022-09-30T20:14:25.400Z,11.02
2022-09-30T20:16:55.391Z,10.97
2022-09-30T20:19:24.157Z,10.93
2022-09-30T20:21:53.462Z,10.92
2022-09-30T20:24:22.141Z,10.83
2022-09-30T20:26:51.245Z,10.80
2022-09-30T20:29:21.614Z,10.76
2022-09-30T20:31:50.302Z,10.74
2022-09-30T20:34:18.814Z,10.74
2022-09-30T20:36:46.897Z,10.74
2022-09-30T20:39:14.569Z,10.69
2022-09-30T20:41:42.890Z,10.67
2022-09-30T20:44:15.416Z,10.64
2022-09-30T20:46:43.993Z,10.66
2022-09-30T20:49:11.674Z,10.64
2022-09-30T20:51:39.345Z,10.66
2022-09-30T20:54:07.059Z,10.71
2022-09-30T20:56:50.118Z,10.70
2022-09-30T20:59:22.625Z,10.73
2022-09-30T21:01:50.284Z,10.72
2022-09-30T21:04:17.912Z,10.69
2022-09-30T21:06:45.537Z,10.68
2022-09-30T21:09:13.924Z,10.70
2022-09-30T21:11:43.178Z,10.68
2022-09-30T21:14:10.841Z,10.67
2022-09-30T21:16:38.561Z,10.69
2022-09-30T21:19:06.290Z,10.66
2022-09-30T21:21:34.201Z,10.60
2022-09-30T21:24:02.628Z,10.56
2022-09-30T21:26:31.071Z,10.54
2022-09-30T21:28:58.662Z,10.53
2022-09-30T21:31:28.283Z,10.52
2022-09-30T21:33:59.334Z,10.46
2022-09-30T21:36:29.058Z,10.34
2022-09-30T21:39:02.422Z,10.26
2022-09-30T21:41:31.306Z,10.19
2022-09-30T21:43:59.875Z,10.11
2022-09-30T21:46:30.500Z,10.04
2022-09-30T21:49:14.789Z,9.94
2022-09-30T21:51:42.905Z,9.93
2022-09-30T21:54:12.845Z,9.94
2022-09-30T21:56:44.701Z,9.90
2022-09-30T21:59:13.891Z,9.89
2022-09-30T22:01:41.941Z,9.90
2022-09-30T22:04:09.998Z,9.84
2022-09-30T22:06:37.666Z,9.80
2022-09-30T22:09:06.278Z,9.78
2022-09-30T22:11:34.126Z,9.76
2022-09-30T22:14:02.473Z,9.75
2022-09-30T22:16:35.779Z,9.74
2022-09-30T22:19:06.038Z,9.75
2022-09-30T22:24:06.579Z,9.71
2022-09-30T22:26:34.911Z,9.66
2022-09-30T22:29:06.600Z,9.59
2022-09-30T22:31:35.635Z,9.57
2022-09-30T22:34:24.746Z,9.57
2022-09-30T22:37:11.349Z,9.55
2022-09-30T22:39:38.992Z,9.52
2022-09-30T22:42:07.164Z,9.56
2022-09-30T22:44:36.821Z,9.55
2022-09-30T22:47:05.441Z,9.54
2022-09-30T22:49:36.107Z,9.58
2022-09-30T22:52:04.675Z,9.58
2022-09-30T22:54:32.570Z,9.59
2022-09-30T22:57:00.409Z,9.57
2022-09-30T22:59:29.536Z,9.55
2022-09-30T23:01:58.230Z,9.58
2022-09-30T23:04:27.815Z,9.54
2022-09-30T23:06:58.957Z,9.50
2022-09-30T23:09:26.667Z,9.46
2022-09-30T23:11:56.097Z,9.46
2022-09-30T23:14:24.067Z,9.45
2022-09-30T23:16:52.385Z,9.48
2022-09-30T23:19:20.620Z,9.46
2022-09-30T23:21:48.763Z,9.42
2022-09-30T23:24:16.724Z,9.39
2022-09-30T23:26:44.659Z,9.40
2022-09-30T23:29:15.122Z,9.32
2022-09-30T23:31:43.178Z,9.30
2022-09-30T23:34:11.014Z,9.27
2022-09-30T23:36:39.105Z,9.32
2022-09-30T23:39:13.461Z,9.32
2022-09-30T23:41:41.470Z,9.35
2022-09-30T23:44:11.079Z,9.38
2022-09-30T23:46:38.698Z,9.37
2022-09-30T23:49:09.404Z,9.31
2022-09-30T23:51:37.138Z,9.32
2022-09-30T23:54:04.838Z,9.34
2022-09-30T23:56:33.225Z,9.35
2022-09-30T23:59:00.974Z,9.38
